sensor_id;sensor_type;location;lat;lon;timestamp;pressure;altitude;pressure_sealevel;temperature;humidity
63493;BME280;49638;47.526;10.028;2024-01-15T00:01:28;90501.06;;;0.44;94.98
63493;BME280;49638;47.526;10.028;2024-01-15T00:04:28;90503.00;;;0.55;94.82
63493;BME280;49638;47.526;10.028;2024-01-15T00:07:28;90508.56;;;0.59;94.81
63493;BME280;49638;47.526;10.028;2024-01-15T00:10:29;90503.94;;;0.61;94.57
63493;BME280;49638;47.526;10.028;2024-01-15T00:13:29;90498.78;;;0.54;94.67
63493;BME280;49638;47.526;10.028;2024-01-15T00:16:29;90502.94;;;0.62;94.54
63493;BME280;49638;47.526;10.028;2024-01-15T00:19:30;90507.34;;;0.61;94.90
63493;BME280;49638;47.526;10.028;2024-01-15T00:22:32;90503.00;;;0.55;96.46
63493;BME280;49638;47.526;10.028;2024-01-15T00:25:32;90503.78;;;0.56;95.70
63493;BME280;49638;47.526;10.028;2024-01-15T00:28:32;90483.84;;;0.50;96.13
63493;BME280;49638;47.526;10.028;2024-01-15T00:31:33;90479.84;;;0.47;96.08
63493;BME280;49638;47.526;10.028;2024-01-15T00:34:33;90471.19;;;0.53;96.08
63493;BME280;49638;47.526;10.028;2024-01-15T00:37:33;90457.09;;;0.42;96.39
63493;BME280;49638;47.526;10.028;2024-01-15T00:40:34;90475.03;;;0.51;96.82
63493;BME280;49638;47.526;10.028;2024-01-15T00:43:34;90477.63;;;0.51;97.08
63493;BME280;49638;47.526;10.028;2024-01-15T00:46:42;90462.44;;;0.47;97.10
63493;BME280;49638;47.526;10.028;2024-01-15T00:49:43;90467.09;;;0.45;96.46
63493;BME280;49638;47.526;10.028;2024-01-15T00:52:43;90468.97;;;0.57;96.29
63493;BME280;49638;47.526;10.028;2024-01-15T00:55:44;90466.53;;;0.62;96.04
63493;BME280;49638;47.526;10.028;2024-01-15T00:58:44;90458.50;;;0.63;96.37
63493;BME280;49638;47.526;10.028;2024-01-15T01:01:45;90470.78;;;0.56;97.21
63493;BME280;49638;47.526;10.028;2024-01-15T01:04:46;90465.34;;;0.58;96.76
63493;BME280;49638;47.526;10.028;2024-01-15T01:07:46;90463.34;;;0.60;96.83
63493;BME280;49638;47.526;10.028;2024-01-15T01:10:46;90453.75;;;0.60;96.03
63493;BME280;49638;47.526;10.028;2024-01-15T01:13:46;90472.91;;;0.66;96.81
63493;BME280;49638;47.526;10.028;2024-01-15T01:16:47;90476.94;;;0.62;97.12
63493;BME280;49638;47.526;10.028;2024-01-15T01:19:47;90472.38;;;0.57;96.66
63493;BME280;49638;47.526;10.028;2024-01-15T01:22:48;90458.94;;;0.60;96.53
63493;BME280;49638;47.526;10.028;2024-01-15T01:25:48;90473.25;;;0.69;96.53
63493;BME280;49638;47.526;10.028;2024-01-15T01:28:48;90466.69;;;0.67;96.89
63493;BME280;49638;47.526;10.028;2024-01-15T01:31:48;90484.88;;;0.67;96.29
63493;BME280;49638;47.526;10.028;2024-01-15T01:34:49;90478.53;;;0.63;96.61
63493;BME280;49638;47.526;10.028;2024-01-15T01:37:49;90476.63;;;0.52;97.15
63493;BME280;49638;47.526;10.028;2024-01-15T01:40:49;90482.56;;;0.59;97.03
63493;BME280;49638;47.526;10.028;2024-01-15T01:43:50;90483.56;;;0.58;97.03
63493;BME280;49638;47.526;10.028;2024-01-15T01:46:50;90483.78;;;0.56;96.83
63493;BME280;49638;47.526;10.028;2024-01-15T01:49:50;90484.56;;;0.57;96.77
63493;BME280;49638;47.526;10.028;2024-01-15T01:52:51;90473.44;;;0.50;97.07
63493;BME280;49638;47.526;10.028;2024-01-15T01:55:52;90474.22;;;0.50;96.73
63493;BME280;49638;47.526;10.028;2024-01-15T01:58:53;90464.13;;;0.42;96.70
63493;BME280;49638;47.526;10.028;2024-01-15T02:01:54;90473.88;;;0.46;96.51
63493;BME280;49638;47.526;10.028;2024-01-15T02:04:55;90484.25;;;0.46;97.02
63493;BME280;49638;47.526;10.028;2024-01-15T02:07:55;90462.97;;;0.38;96.84
63493;BME280;49638;47.526;10.028;2024-01-15T02:10:55;90492.47;;;0.43;97.43
63493;BME280;49638;47.526;10.028;2024-01-15T02:13:56;90481.53;;;0.41;96.99
63493;BME280;49638;47.526;10.028;2024-01-15T02:16:56;90470.38;;;0.34;96.97
63493;BME280;49638;47.526;10.028;2024-01-15T02:19:56;90486.06;;;0.46;96.66
63493;BME280;49638;47.526;10.028;2024-01-15T02:23:14;90493.72;;;0.41;97.41
63493;BME280;49638;47.526;10.028;2024-01-15T02:26:14;90485.97;;;0.34;96.14
63493;BME280;49638;47.526;10.028;2024-01-15T02:29:15;90480.22;;;0.26;96.67
63493;BME280;49638;47.526;10.028;2024-01-15T02:32:15;90476.84;;;0.25;96.33
63493;BME280;49638;47.526;10.028;2024-01-15T02:35:16;90476.91;;;0.18;95.92
63493;BME280;49638;47.526;10.028;2024-01-15T02:38:16;90489.97;;;0.30;95.48
63493;BME280;49638;47.526;10.028;2024-01-15T02:41:17;90482.56;;;0.34;95.36
63493;BME280;49638;47.526;10.028;2024-01-15T02:44:17;90490.72;;;0.37;95.58
63493;BME280;49638;47.526;10.028;2024-01-15T02:47:17;90483.19;;;0.29;97.56
63493;BME280;49638;47.526;10.028;2024-01-15T02:50:17;90482.03;;;0.25;96.89
63493;BME280;49638;47.526;10.028;2024-01-15T02:53:18;90476.91;;;0.18;96.38
63493;BME280;49638;47.526;10.028;2024-01-15T02:56:18;90479.03;;;0.28;96.26
63493;BME280;49638;47.526;10.028;2024-01-15T02:59:18;90477.91;;;0.17;96.53
63493;BME280;49638;47.526;10.028;2024-01-15T03:02:18;90493.88;;;0.21;96.67
63493;BME280;49638;47.526;10.028;2024-01-15T03:05:19;90487.47;;;0.17;96.47
63493;BME280;49638;47.526;10.028;2024-01-15T03:08:20;90480.59;;;0.04;96.66
63493;BME280;49638;47.526;10.028;2024-01-15T03:11:20;90479.25;;;-0.05;96.81
63493;BME280;49638;47.526;10.028;2024-01-15T03:14:20;90500.22;;;0.00;96.62
63493;BME280;49638;47.526;10.028;2024-01-15T03:17:21;90481.56;;;-0.22;97.25
63493;BME280;49638;47.526;10.028;2024-01-15T03:20:21;90486.72;;;-0.15;96.47
63493;BME280;49638;47.526;10.028;2024-01-15T03:23:21;90501.16;;;-0.26;97.32
63493;BME280;49638;47.526;10.028;2024-01-15T03:26:21;90493.03;;;-0.36;97.37
63493;BME280;49638;47.526;10.028;2024-01-15T03:29:22;90490.06;;;-0.40;96.54
63493;BME280;49638;47.526;10.028;2024-01-15T03:32:22;90495.69;;;-0.50;96.21
63493;BME280;49638;47.526;10.028;2024-01-15T03:35:22;90493.34;;;-0.58;96.84
63493;BME280;49638;47.526;10.028;2024-01-15T03:38:23;90491.75;;;-0.59;96.89
63493;BME280;49638;47.526;10.028;2024-01-15T03:41:23;90490.94;;;-0.59;96.17
63493;BME280;49638;47.526;10.028;2024-01-15T03:44:24;90489.41;;;-0.67;96.25
63493;BME280;49638;47.526;10.028;2024-01-15T03:47:24;90491.22;;;-0.74;96.47
63493;BME280;49638;47.526;10.028;2024-01-15T03:50:24;90485.25;;;-0.75;97.24
63493;BME280;49638;47.526;10.028;2024-01-15T03:53:25;90487.84;;;-0.81;97.42
63493;BME280;49638;47.526;10.028;2024-01-15T03:56:25;90488.88;;;-0.89;97.03
63493;BME280;49638;47.526;10.028;2024-01-15T03:59:26;90498.25;;;-0.88;97.58
63493;BME280;49638;47.526;10.028;2024-01-15T04:02:26;90483.50;;;-0.87;96.89
63493;BME280;49638;47.526;10.028;2024-01-15T04:05:26;90483.09;;;-0.84;97.07
63493;BME280;49638;47.526;10.028;2024-01-15T04:08:26;90486.28;;;-0.96;97.06
63493;BME280;49638;47.526;10.028;2024-01-15T04:11:27;90481.72;;;-0.93;96.61
63493;BME280;49638;47.526;10.028;2024-01-15T04:14:27;90479.13;;;-0.93;96.57
63493;BME280;49638;47.526;10.028;2024-01-15T04:17:28;90473.56;;;-1.04;95.87
63493;BME280;49638;47.526;10.028;2024-01-15T04:20:29;90465.19;;;-1.06;96.03
63493;BME280;49638;47.526;10.028;2024-01-15T04:23:29;90456.84;;;-1.14;95.44
63493;BME280;49638;47.526;10.028;2024-01-15T04:26:29;90471.78;;;-1.10;95.31
63493;BME280;49638;47.526;10.028;2024-01-15T04:29:29;90480.16;;;-1.08;95.38
63493;BME280;49638;47.526;10.028;2024-01-15T04:32:30;90486.75;;;-1.12;95.28
63493;BME280;49638;47.526;10.028;2024-01-15T04:35:30;90475.59;;;-1.19;95.13
63493;BME280;49638;47.526;10.028;2024-01-15T04:38:31;90480.00;;;-1.33;95.17
63493;BME280;49638;47.526;10.028;2024-01-15T04:41:33;90471.84;;;-1.36;95.00
63493;BME280;49638;47.526;10.028;2024-01-15T04:44:33;90475.66;;;-1.32;94.80
63493;BME280;49638;47.526;10.028;2024-01-15T04:47:33;90476.06;;;-1.35;94.30
63493;BME280;49638;47.526;10.028;2024-01-15T04:50:33;90489.00;;;-1.29;93.41
63493;BME280;49638;47.526;10.028;2024-01-15T04:53:34;90488.00;;;-1.41;93.44
63493;BME280;49638;47.526;10.028;2024-01-15T04:56:35;90473.47;;;-1.49;93.64
63493;BME280;49638;47.526;10.028;2024-01-15T04:59:35;90486.63;;;-1.50;93.06
63493;BME280;49638;47.526;10.028;2024-01-15T05:02:35;90486.22;;;-1.54;93.21
63493;BME280;49638;47.526;10.028;2024-01-15T05:05:35;90481.66;;;-1.52;93.36
63493;BME280;49638;47.526;10.028;2024-01-15T05:08:35;90479.06;;;-1.45;93.26
63493;BME280;49638;47.526;10.028;2024-01-15T05:11:36;90496.41;;;-1.39;93.30
63493;BME280;49638;47.526;10.028;2024-01-15T05:14:36;90489.22;;;-1.44;93.30
63493;BME280;49638;47.526;10.028;2024-01-15T05:17:36;90488.41;;;-1.37;93.37
63493;BME280;49638;47.526;10.028;2024-01-15T05:20:36;90482.22;;;-1.43;92.97
63493;BME280;49638;47.526;10.028;2024-01-15T05:23:37;90482.81;;;-1.34;93.15
63493;BME280;49638;47.526;10.028;2024-01-15T05:26:38;90493.19;;;-1.28;92.49
63493;BME280;49638;47.526;10.028;2024-01-15T05:29:38;90475.06;;;-1.41;91.97
63493;BME280;49638;47.526;10.028;2024-01-15T05:32:38;90492.97;;;-1.39;91.60
63493;BME280;49638;47.526;10.028;2024-01-15T05:35:38;90492.00;;;-1.45;91.01
63493;BME280;49638;47.526;10.028;2024-01-15T05:38:39;90486.84;;;-1.52;90.49
63493;BME280;49638;47.526;10.028;2024-01-15T05:41:39;90490.00;;;-1.50;91.51
63493;BME280;49638;47.526;10.028;2024-01-15T05:44:39;90499.81;;;-1.58;89.90
63493;BME280;49638;47.526;10.028;2024-01-15T05:47:39;90495.41;;;-1.58;90.00
63493;BME280;49638;47.526;10.028;2024-01-15T05:50:41;90496.41;;;-1.52;90.33
63493;BME280;49638;47.526;10.028;2024-01-15T05:53:41;90503.78;;;-1.49;90.53
63493;BME280;49638;47.526;10.028;2024-01-15T05:56:42;90497.78;;;-1.50;89.84
63493;BME280;49638;47.526;10.028;2024-01-15T05:59:44;90472.91;;;-1.64;90.31
63493;BME280;49638;47.526;10.028;2024-01-15T06:02:44;90491.41;;;-1.54;90.51
63493;BME280;49638;47.526;10.028;2024-01-15T06:05:45;90485.84;;;-1.57;90.30
63493;BME280;49638;47.526;10.028;2024-01-15T06:08:45;90492.81;;;-1.58;91.01
63493;BME280;49638;47.526;10.028;2024-01-15T06:11:45;90487.47;;;-1.63;90.47
63493;BME280;49638;47.526;10.028;2024-01-15T06:14:45;90489.84;;;-1.55;89.30
63493;BME280;49638;47.526;10.028;2024-01-15T06:17:46;90497.59;;;-1.55;89.97
63493;BME280;49638;47.526;10.028;2024-01-15T06:20:46;90472.09;;;-1.71;89.44
63493;BME280;49638;47.526;10.028;2024-01-15T06:23:46;90493.22;;;-1.61;89.44
63493;BME280;49638;47.526;10.028;2024-01-15T06:26:47;90501.59;;;-1.59;90.56
63493;BME280;49638;47.526;10.028;2024-01-15T06:29:47;90493.44;;;-1.62;89.18
63493;BME280;49638;47.526;10.028;2024-01-15T06:32:47;90494.84;;;-1.73;88.40
63493;BME280;49638;47.526;10.028;2024-01-15T06:35:47;90486.25;;;-1.80;89.13
63493;BME280;49638;47.526;10.028;2024-01-15T06:38:49;90476.72;;;-1.86;89.15
63493;BME280;49638;47.526;10.028;2024-01-15T06:41:49;90473.50;;;-1.88;88.40
63493;BME280;49638;47.526;10.028;2024-01-15T06:44:50;90478.09;;;-1.77;88.93
63493;BME280;49638;47.526;10.028;2024-01-15T06:47:50;90482.88;;;-1.74;88.82
63493;BME280;49638;47.526;10.028;2024-01-15T06:50:50;90471.72;;;-1.81;88.59
63493;BME280;49638;47.526;10.028;2024-01-15T06:53:50;90471.94;;;-1.76;88.36
63493;BME280;49638;47.526;10.028;2024-01-15T06:56:51;90462.75;;;-1.72;88.43
63493;BME280;49638;47.526;10.028;2024-01-15T06:59:51;90435.69;;;-1.89;86.86
63493;BME280;49638;47.526;10.028;2024-01-15T07:02:51;90470.94;;;-1.82;87.49
63493;BME280;49638;47.526;10.028;2024-01-15T07:05:52;90475.31;;;-1.76;87.70
63493;BME280;49638;47.526;10.028;2024-01-15T07:08:52;90486.06;;;-1.72;87.37
63493;BME280;49638;47.526;10.028;2024-01-15T07:11:52;90471.53;;;-1.73;87.29
63493;BME280;49638;47.526;10.028;2024-01-15T07:14:52;90460.16;;;-1.85;87.15
63493;BME280;49638;47.526;10.028;2024-01-15T07:17:52;90475.31;;;-1.82;87.23
63493;BME280;49638;47.526;10.028;2024-01-15T07:20:53;90472.31;;;-1.93;87.86
63493;BME280;49638;47.526;10.028;2024-01-15T07:23:53;90468.56;;;-1.97;87.53
63493;BME280;49638;47.526;10.028;2024-01-15T07:26:54;90478.69;;;-2.02;87.69
63493;BME280;49638;47.526;10.028;2024-01-15T07:29:54;90480.66;;;-2.04;87.67
63493;BME280;49638;47.526;10.028;2024-01-15T07:32:54;90465.56;;;-2.20;87.39
63493;BME280;49638;47.526;10.028;2024-01-15T07:35:54;90495.63;;;-2.06;88.05
63493;BME280;49638;47.526;10.028;2024-01-15T07:38:55;90479.06;;;-2.11;87.12
63493;BME280;49638;47.526;10.028;2024-01-15T07:41:55;90477.28;;;-2.11;88.11
63493;BME280;49638;47.526;10.028;2024-01-15T07:44:56;90480.69;;;-2.10;87.96
63493;BME280;49638;47.526;10.028;2024-01-15T07:47:56;90474.91;;;-2.12;88.01
63493;BME280;49638;47.526;10.028;2024-01-15T07:50:56;90469.34;;;-2.16;87.50
63493;BME280;49638;47.526;10.028;2024-01-15T07:53:56;90472.09;;;-2.18;88.47
63493;BME280;49638;47.526;10.028;2024-01-15T07:56:58;90465.94;;;-2.23;87.93
63493;BME280;49638;47.526;10.028;2024-01-15T07:59:58;90464.94;;;-2.22;88.50
63493;BME280;49638;47.526;10.028;2024-01-15T08:02:59;90467.53;;;-2.22;88.95
63493;BME280;49638;47.526;10.028;2024-01-15T08:05:59;90461.34;;;-2.21;89.40
63493;BME280;49638;47.526;10.028;2024-01-15T08:08:59;90473.31;;;-2.07;89.59
63493;BME280;49638;47.526;10.028;2024-01-15T08:12:00;90468.72;;;-2.11;89.11
63493;BME280;49638;47.526;10.028;2024-01-15T08:15:00;90430.91;;;-2.26;89.52
63493;BME280;49638;47.526;10.028;2024-01-15T08:18:00;90460.16;;;-2.12;89.68
63493;BME280;49638;47.526;10.028;2024-01-15T08:21:01;90455.22;;;-2.07;89.10
63493;BME280;49638;47.526;10.028;2024-01-15T08:24:02;90462.38;;;-2.02;89.52
63493;BME280;49638;47.526;10.028;2024-01-15T08:27:02;90453.59;;;-2.08;89.65
63493;BME280;49638;47.526;10.028;2024-01-15T08:30:05;90460.56;;;-2.02;89.08
63493;BME280;49638;47.526;10.028;2024-01-15T08:33:05;90452.81;;;-2.15;89.85
63493;BME280;49638;47.526;10.028;2024-01-15T08:36:06;90456.97;;;-2.07;91.31
63493;BME280;49638;47.526;10.028;2024-01-15T08:39:07;90469.34;;;-2.03;90.26
63493;BME280;49638;47.526;10.028;2024-01-15T08:42:09;90434.88;;;-2.23;90.06
63493;BME280;49638;47.526;10.028;2024-01-15T08:45:09;90468.94;;;-2.00;89.79
63493;BME280;49638;47.526;10.028;2024-01-15T08:48:09;90479.09;;;-1.98;89.95
63493;BME280;49638;47.526;10.028;2024-01-15T08:51:10;90478.06;;;-2.04;90.09
63493;BME280;49638;47.526;10.028;2024-01-15T08:54:10;90468.72;;;-2.05;89.50
63493;BME280;49638;47.526;10.028;2024-01-15T08:57:10;90484.88;;;-2.03;89.31
63493;BME280;49638;47.526;10.028;2024-01-15T09:00:12;90471.91;;;-2.16;89.72
63493;BME280;49638;47.526;10.028;2024-01-15T09:03:12;90473.31;;;-2.27;90.27
63493;BME280;49638;47.526;10.028;2024-01-15T09:06:12;90490.44;;;-2.12;90.15
63493;BME280;49638;47.526;10.028;2024-01-15T09:09:13;90481.28;;;-2.15;90.01
63493;BME280;49638;47.526;10.028;2024-01-15T09:12:14;90482.84;;;-2.07;89.85
63493;BME280;49638;47.526;10.028;2024-01-15T09:15:15;90488.44;;;-2.04;90.21
63493;BME280;49638;47.526;10.028;2024-01-15T09:18:16;90470.34;;;-2.17;89.76
63493;BME280;49638;47.526;10.028;2024-01-15T09:21:16;90483.06;;;-2.09;90.00
63493;BME280;49638;47.526;10.028;2024-01-15T09:24:16;90473.13;;;-2.12;90.00
63493;BME280;49638;47.526;10.028;2024-01-15T09:27:16;90484.25;;;-1.98;89.98
63493;BME280;49638;47.526;10.028;2024-01-15T09:30:17;90478.91;;;-1.97;89.65
63493;BME280;49638;47.526;10.028;2024-01-15T09:33:17;90494.03;;;-1.94;89.63
63493;BME280;49638;47.526;10.028;2024-01-15T09:36:17;90495.03;;;-1.95;89.71
63493;BME280;49638;47.526;10.028;2024-01-15T09:39:17;90504.59;;;-1.88;89.88
63493;BME280;49638;47.526;10.028;2024-01-15T09:42:18;90473.34;;;-1.94;89.45
63493;BME280;49638;47.526;10.028;2024-01-15T09:45:19;90500.03;;;-1.86;88.75
63493;BME280;49638;47.526;10.028;2024-01-15T09:48:20;90494.44;;;-1.90;89.39
63493;BME280;49638;47.526;10.028;2024-01-15T09:51:21;90493.63;;;-1.91;88.84
63493;BME280;49638;47.526;10.028;2024-01-15T09:54:21;90490.84;;;-1.96;89.03
63493;BME280;49638;47.526;10.028;2024-01-15T09:57:21;90493.63;;;-2.04;89.42
63493;BME280;49638;47.526;10.028;2024-01-15T10:00:22;90479.47;;;-2.01;89.54
63493;BME280;49638;47.526;10.028;2024-01-15T10:03:23;90479.69;;;-2.03;88.50
63493;BME280;49638;47.526;10.028;2024-01-15T10:06:23;90508.75;;;-1.87;88.87
63493;BME280;49638;47.526;10.028;2024-01-15T10:09:23;90501.38;;;-1.91;88.73
63493;BME280;49638;47.526;10.028;2024-01-15T10:12:24;90496.03;;;-1.96;88.64
63493;BME280;49638;47.526;10.028;2024-01-15T10:15:26;90457.78;;;-2.20;89.04
63493;BME280;49638;47.526;10.028;2024-01-15T10:18:26;90505.19;;;-1.93;89.08
63493;BME280;49638;47.526;10.028;2024-01-15T10:21:26;90498.22;;;-1.93;88.90
63493;BME280;49638;47.526;10.028;2024-01-15T10:24:27;90483.69;;;-2.00;89.19
63493;BME280;49638;47.526;10.028;2024-01-15T10:27:27;90488.03;;;-1.87;89.24
63493;BME280;49638;47.526;10.028;2024-01-15T10:30:28;90485.66;;;-1.82;88.64
63493;BME280;49638;47.526;10.028;2024-01-15T10:33:28;90474.13;;;-1.80;88.49
63493;BME280;49638;47.526;10.028;2024-01-15T10:36:29;90453.00;;;-1.90;88.02
63493;BME280;49638;47.526;10.028;2024-01-15T10:39:30;90463.94;;;-1.88;87.78
63493;BME280;49638;47.526;10.028;2024-01-15T10:42:30;90437.66;;;-1.98;88.01
63493;BME280;49638;47.526;10.028;2024-01-15T10:45:31;90451.78;;;-2.01;83.85
63493;BME280;49638;47.526;10.028;2024-01-15T10:48:32;90450.59;;;-1.92;84.60
63493;BME280;49638;47.526;10.028;2024-01-15T10:51:34;90440.25;;;-2.05;86.84
63493;BME280;49638;47.526;10.028;2024-01-15T10:54:36;90446.84;;;-1.96;87.43
63493;BME280;49638;47.526;10.028;2024-01-15T10:57:37;90428.91;;;-1.97;87.20
63493;BME280;49638;47.526;10.028;2024-01-15T11:00:38;90428.72;;;-1.89;86.80
63493;BME280;49638;47.526;10.028;2024-01-15T11:03:39;90436.66;;;-1.77;87.56
63493;BME280;49638;47.526;10.028;2024-01-15T11:06:44;90427.06;;;-1.77;86.27
63493;BME280;49638;47.526;10.028;2024-01-15T11:09:45;90429.88;;;-1.85;85.68
63493;BME280;49638;47.526;10.028;2024-01-15T11:12:47;90444.63;;;-1.79;86.70
63493;BME280;49638;47.526;10.028;2024-01-15T11:16:03;90441.25;;;-1.86;85.52
63493;BME280;49638;47.526;10.028;2024-01-15T11:19:05;90431.69;;;-1.85;86.14
63493;BME280;49638;47.526;10.028;2024-01-15T11:22:55;90413.19;;;-1.96;86.05
63493;BME280;49638;47.526;10.028;2024-01-15T11:25:35;90430.28;;;-1.88;85.66
63493;BME280;49638;47.526;10.028;2024-01-15T11:28:47;90421.53;;;-1.94;85.89
63493;BME280;49638;47.526;10.028;2024-01-15T11:34:58;90416.56;;;-1.88;85.20
63493;BME280;49638;47.526;10.028;2024-01-15T11:38:00;90416.56;;;-1.88;86.79
63493;BME280;49638;47.526;10.028;2024-01-15T11:41:16;90428.50;;;-1.87;84.24
63493;BME280;49638;47.526;10.028;2024-01-15T11:44:16;90426.91;;;-1.82;86.23
63493;BME280;49638;47.526;10.028;2024-01-15T11:47:33;90421.13;;;-1.97;84.55
63493;BME280;49638;47.526;10.028;2024-01-15T11:50:44;90422.34;;;-1.93;86.25
63493;BME280;49638;47.526;10.028;2024-01-15T11:53:48;90416.78;;;-1.97;84.14
63493;BME280;49638;47.526;10.028;2024-01-15T11:56:53;90412.78;;;-1.99;85.92
63493;BME280;49638;47.526;10.028;2024-01-15T11:59:54;90404.03;;;-2.25;83.47
63493;BME280;49638;47.526;10.028;2024-01-15T12:02:54;90399.25;;;-2.21;83.16
63493;BME280;49638;47.526;10.028;2024-01-15T12:05:56;90366.03;;;-2.38;84.13
63493;BME280;49638;47.526;10.028;2024-01-15T12:09:06;90396.63;;;-2.01;84.66
63493;BME280;49638;47.526;10.028;2024-01-15T12:12:09;90377.94;;;-1.97;85.41
63493;BME280;49638;47.526;10.028;2024-01-15T12:15:14;90370.16;;;-1.90;85.56
63493;BME280;49638;47.526;10.028;2024-01-15T12:18:17;90368.53;;;-1.78;85.12
63493;BME280;49638;47.526;10.028;2024-01-15T12:21:18;90370.91;;;-1.70;82.93
63493;BME280;49638;47.526;10.028;2024-01-15T12:24:18;90350.19;;;-1.76;83.15
63493;BME280;49638;47.526;10.028;2024-01-15T12:27:18;90342.03;;;-1.80;82.84
63493;BME280;49638;47.526;10.028;2024-01-15T12:30:19;90336.44;;;-1.77;81.74
63493;BME280;49638;47.526;10.028;2024-01-15T12:33:19;90329.88;;;-1.73;83.88
63493;BME280;49638;47.526;10.028;2024-01-15T12:36:21;90334.63;;;-1.63;83.82
63493;BME280;49638;47.526;10.028;2024-01-15T12:39:21;90331.56;;;-1.53;82.65
63493;BME280;49638;47.526;10.028;2024-01-15T12:42:21;90324.03;;;-1.55;82.48
63493;BME280;49638;47.526;10.028;2024-01-15T12:45:21;90300.91;;;-1.56;82.30
63493;BME280;49638;47.526;10.028;2024-01-15T12:48:22;90299.59;;;-1.72;82.31
63493;BME280;49638;47.526;10.028;2024-01-15T12:51:26;90337.94;;;-1.42;79.11
63493;BME280;49638;47.526;10.028;2024-01-15T12:54:26;90331.34;;;-1.38;83.07
63493;BME280;49638;47.526;10.028;2024-01-15T12:57:27;90344.69;;;-1.41;81.52
63493;BME280;49638;47.526;10.028;2024-01-15T13:00:27;90346.81;;;-1.25;83.06
63493;BME280;49638;47.526;10.028;2024-01-15T13:03:27;90329.50;;;-1.31;82.45
63493;BME280;49638;47.526;10.028;2024-01-15T13:06:27;90334.50;;;-1.36;82.11
63493;BME280;49638;47.526;10.028;2024-01-15T13:09:28;90359.78;;;-1.25;81.97
63493;BME280;49638;47.526;10.028;2024-01-15T13:12:29;90347.25;;;-1.28;82.69
63493;BME280;49638;47.526;10.028;2024-01-15T13:15:30;90360.16;;;-1.22;83.13
63493;BME280;49638;47.526;10.028;2024-01-15T13:18:31;90344.22;;;-1.18;82.95
63493;BME280;49638;47.526;10.028;2024-01-15T13:21:31;90340.47;;;-1.36;81.28
63493;BME280;49638;47.526;10.028;2024-01-15T13:24:31;90363.19;;;-1.31;84.42
63493;BME280;49638;47.526;10.028;2024-01-15T13:27:32;90343.31;;;-1.44;84.25
63493;BME280;49638;47.526;10.028;2024-01-15T13:30:32;90379.56;;;-1.37;83.86
63493;BME280;49638;47.526;10.028;2024-01-15T13:33:32;90375.16;;;-1.30;84.74
63493;BME280;49638;47.526;10.028;2024-01-15T13:36:32;90342.69;;;-1.39;83.02
63493;BME280;49638;47.526;10.028;2024-01-15T13:39:33;90358.44;;;-1.41;84.83
63493;BME280;49638;47.526;10.028;2024-01-15T13:42:33;90355.63;;;-1.39;84.62
63493;BME280;49638;47.526;10.028;2024-01-15T13:45:34;90365.44;;;-1.41;85.28
63493;BME280;49638;47.526;10.028;2024-01-15T13:48:35;90367.00;;;-1.34;83.09
63493;BME280;49638;47.526;10.028;2024-01-15T13:51:36;90385.53;;;-1.37;85.12
63493;BME280;49638;47.526;10.028;2024-01-15T13:54:36;90378.78;;;-1.45;84.99
63493;BME280;49638;47.526;10.028;2024-01-15T13:57:36;90376.38;;;-1.39;85.10
63493;BME280;49638;47.526;10.028;2024-01-15T14:00:37;90395.91;;;-1.37;84.95
63493;BME280;49638;47.526;10.028;2024-01-15T14:03:37;90383.53;;;-1.35;85.44
63493;BME280;49638;47.526;10.028;2024-01-15T14:06:37;90395.13;;;-1.37;85.18
63493;BME280;49638;47.526;10.028;2024-01-15T14:09:38;90379.81;;;-1.46;84.98
63493;BME280;49638;47.526;10.028;2024-01-15T14:12:38;90366.22;;;-1.41;85.58
63493;BME280;49638;47.526;10.028;2024-01-15T14:15:39;90380.19;;;-1.42;84.87
63493;BME280;49638;47.526;10.028;2024-01-15T14:18:40;90402.47;;;-1.34;84.43
63493;BME280;49638;47.526;10.028;2024-01-15T14:21:40;90406.06;;;-1.29;84.24
63493;BME280;49638;47.526;10.028;2024-01-15T14:24:41;90392.72;;;-1.32;84.25
63493;BME280;49638;47.526;10.028;2024-01-15T14:27:41;90379.41;;;-1.42;82.62
63493;BME280;49638;47.526;10.028;2024-01-15T14:30:41;90403.09;;;-1.39;84.76
63493;BME280;49638;47.526;10.028;2024-01-15T14:33:41;90397.28;;;-1.34;84.50
63493;BME280;49638;47.526;10.028;2024-01-15T14:36:42;90408.84;;;-1.37;84.32
63493;BME280;49638;47.526;10.028;2024-01-15T14:39:42;90417.41;;;-1.30;83.87
63493;BME280;49638;47.526;10.028;2024-01-15T14:42:43;90409.09;;;-1.45;82.63
63493;BME280;49638;47.526;10.028;2024-01-15T14:45:43;90411.84;;;-1.40;84.16
63493;BME280;49638;47.526;10.028;2024-01-15T14:48:43;90406.47;;;-1.38;83.30
63493;BME280;49638;47.526;10.028;2024-01-15T14:51:44;90402.88;;;-1.37;83.24
63493;BME280;49638;47.526;10.028;2024-01-15T14:54:45;90418.44;;;-1.37;83.40
63493;BME280;49638;47.526;10.028;2024-01-15T14:57:45;90400.53;;;-1.46;82.09
63493;BME280;49638;47.526;10.028;2024-01-15T15:00:45;90426.22;;;-1.37;82.72
63493;BME280;49638;47.526;10.028;2024-01-15T15:03:46;90438.13;;;-1.30;83.37
63493;BME280;49638;47.526;10.028;2024-01-15T15:06:46;90445.75;;;-1.35;83.66
63493;BME280;49638;47.526;10.028;2024-01-15T15:09:46;90434.22;;;-1.46;82.78
63493;BME280;49638;47.526;10.028;2024-01-15T15:12:50;90432.97;;;-1.36;82.23
63493;BME280;49638;47.526;10.028;2024-01-15T15:15:52;90431.81;;;-1.47;82.60
63493;BME280;49638;47.526;10.028;2024-01-15T15:18:53;90434.59;;;-1.35;82.20
63493;BME280;49638;47.526;10.028;2024-01-15T15:21:54;90416.06;;;-1.46;82.31
63493;BME280;49638;47.526;10.028;2024-01-15T15:24:55;90421.44;;;-1.40;83.42
63493;BME280;49638;47.526;10.028;2024-01-15T15:27:55;90444.34;;;-1.37;82.96
63493;BME280;49638;47.526;10.028;2024-01-15T15:30:55;90433.81;;;-1.42;82.49
63493;BME280;49638;47.526;10.028;2024-01-15T15:33:57;90438.56;;;-1.39;82.50
63493;BME280;49638;47.526;10.028;2024-01-15T15:36:57;90458.88;;;-1.36;81.89
63493;BME280;49638;47.526;10.028;2024-01-15T15:39:57;90452.91;;;-1.37;83.17
63493;BME280;49638;47.526;10.028;2024-01-15T15:42:59;90464.06;;;-1.30;82.21
63493;BME280;49638;47.526;10.028;2024-01-15T15:45:59;90458.50;;;-1.47;82.35
63493;BME280;49638;47.526;10.028;2024-01-15T15:48:59;90469.88;;;-1.34;82.70
63493;BME280;49638;47.526;10.028;2024-01-15T15:52:00;90474.03;;;-1.33;82.86